Time;durP1;ratioP1;P1;durP2;ratioP2;P2;SDS_P1;SDS_P2;PMS_P1;PMS_P2;Temp;Humidity;BMP_temperature;BMP_pressure;BME280_temperature;BME280_humidity;BME280_pressure;Samples;Min_cycle;Max_cycle;Signal;HPM_P1;HPM_P2
2023/10/07 00:02:15;;;;;;;3.60;2.03;;;;;;;-145.63;50.32;39358.66;5061757;28;20021;-67
2023/10/07 00:04:42;;;;;;;2.67;1.75;;;;;;;-145.63;50.51;39358.66;5048901;28;20026;-66
2023/10/07 00:07:10;;;;;;;2.30;1.80;;;;;;;-145.63;50.50;39364.53;5028836;28;20018;-65
2023/10/07 00:09:41;;;;;;;2.70;1.92;;;;;;;-145.63;50.28;39360.63;5040294;28;20025;-65
2023/10/07 00:12:28;;;;;;;3.80;2.10;;;;;;;-145.63;50.94;39348.88;5058403;28;20083;-67
2023/10/07 00:14:53;;;;;;;6.00;2.45;;;;;;;-145.63;50.81;39384.09;5037389;28;20245;-64
2023/10/07 00:17:19;;;;;;;4.63;2.33;;;;;;;-145.63;50.83;39348.88;5037415;28;20040;-67
2023/10/07 00:19:46;;;;;;;4.13;2.30;;;;;;;-145.63;50.64;39409.53;5042542;28;20033;-66
2023/10/07 00:22:19;;;;;;;3.03;1.88;;;;;;;-145.63;50.62;39376.28;5043133;28;20059;-66
2023/10/07 00:24:46;;;;;;;4.78;2.20;;;;;;;-145.63;50.55;39395.84;5056052;28;20021;-65
2023/10/07 00:27:26;;;;;;;2.85;2.03;;;;;;;-145.63;51.16;39348.88;5061683;28;20021;-65
2023/10/07 00:29:54;;;;;;;2.22;1.80;;;;;;;-145.63;51.09;39393.88;5033860;28;20056;-66
2023/10/07 00:32:26;;;;;;;2.97;2.00;;;;;;;-145.63;51.22;39376.28;5046770;28;20037;-65
2023/10/07 00:34:54;;;;;;;3.80;2.33;;;;;;;-145.63;51.10;39372.34;5040442;28;20026;-66
2023/10/07 00:37:20;;;;;;;3.42;2.03;;;;;;;-145.63;50.93;39350.84;5055615;28;20084;-65
2023/10/07 00:39:46;;;;;;;3.78;2.00;;;;;;;-145.63;50.92;39384.09;5056562;28;20092;-66
2023/10/07 00:42:12;;;;;;;2.08;1.70;;;;;;;-145.63;51.24;39366.50;5045946;28;20033;-67
2023/10/07 00:44:39;;;;;;;3.58;2.45;;;;;;;-145.63;50.68;39352.81;5046168;28;20269;-64
2023/10/07 00:52:32;;;;;;;4.97;2.45;;;;;;;-145.63;51.40;39348.88;5059515;28;20048;-64
2023/10/07 00:59:58;;;;;;;2.85;1.90;;;;;;;-145.63;51.35;39364.53;5051795;28;20400;-66
2023/10/07 01:02:30;;;;;;;2.08;1.83;;;;;;;-145.63;51.61;39364.53;5035363;28;20075;-65
2023/10/07 01:05:00;;;;;;;;;;;;;;;-145.63;51.92;39358.66;5064251;28;20036;-65
2023/10/07 01:07:27;;;;;;;3.60;2.15;;;;;;;-145.63;51.45;39368.44;5061078;28;19984;-67
2023/10/07 01:12:38;;;;;;;2.55;1.67;;;;;;;-145.63;51.34;39327.38;5053667;28;20029;-67
2023/10/07 01:15:24;;;;;;;2.45;2.22;;;;;;;-145.63;51.88;39356.72;5043019;28;20068;-66
2023/10/07 01:18:05;;;;;;;2.00;1.65;;;;;;;-145.63;51.18;39327.38;5028006;28;20079;-67
2023/10/07 01:20:37;;;;;;;2.33;1.45;;;;;;;-145.63;51.29;39384.09;5064615;28;20052;-66
2023/10/07 01:23:04;;;;;;;2.42;1.73;;;;;;;-145.63;51.02;39370.41;5044325;28;20035;-66
2023/10/07 01:25:31;;;;;;;2.25;1.83;;;;;;;-145.63;51.50;39344.97;5060995;28;20294;-67
2023/10/07 01:28:01;;;;;;;2.63;1.75;;;;;;;-145.63;51.47;39356.72;5054593;28;20025;-66
2023/10/07 01:30:29;;;;;;;4.45;1.80;;;;;;;-145.63;51.18;39378.22;5052280;28;20024;-67
2023/10/07 01:33:23;;;;;;;1.75;1.42;;;;;;;-145.63;51.49;39364.53;5063196;28;20025;-66
2023/10/07 01:36:14;;;;;;;1.65;1.30;;;;;;;-145.63;51.60;39354.75;5049337;28;20036;-64
2023/10/07 01:38:52;;;;;;;2.58;1.80;;;;;;;-145.63;52.23;39344.97;5065449;28;20025;-65
2023/10/07 01:41:27;;;;;;;1.95;1.70;;;;;;;-145.63;52.08;39382.13;5029026;28;20034;-64
2023/10/07 01:43:59;;;;;;;2.53;1.70;;;;;;;-145.63;52.02;39388.00;5045139;28;20022;-66
2023/10/07 01:46:29;;;;;;;3.00;1.75;;;;;;;-145.63;52.71;39364.53;5059666;28;20062;-65
2023/10/07 01:49:11;;;;;;;2.47;1.90;;;;;;;-145.63;52.29;39360.63;5037165;28;20030;-65
2023/10/07 01:51:44;;;;;;;2.35;2.03;;;;;;;-145.63;52.45;39368.44;5052819;28;20029;-66
2023/10/07 01:54:11;;;;;;;2.70;1.50;;;;;;;-145.63;52.19;39352.81;5058520;28;20091;-65
2023/10/07 01:56:38;;;;;;;2.70;1.98;;;;;;;-145.63;52.75;39364.53;5047016;28;20029;-66
2023/10/07 01:59:17;;;;;;;3.08;1.95;;;;;;;-145.63;52.89;39388.00;5068429;28;20036;-65
2023/10/07 02:01:53;;;;;;;4.22;2.55;;;;;;;-145.63;52.92;39348.88;5048469;28;20035;-66
2023/10/07 02:04:29;;;;;;;2.85;2.63;;;;;;;-145.63;52.61;39354.75;5058566;28;20058;-65
2023/10/07 02:06:56;;;;;;;5.28;4.78;;;;;;;-145.63;52.00;39335.19;5054505;28;20029;-65
2023/10/07 02:09:34;;;;;;;6.18;4.97;;;;;;;-145.63;52.88;39356.72;5050380;28;20047;-66
2023/10/07 02:12:03;;;;;;;5.10;4.32;;;;;;;-145.63;52.27;39356.72;5061849;28;20031;-65
2023/10/07 02:14:31;;;;;;;5.03;4.50;;;;;;;-145.63;52.29;39346.94;5037045;28;20200;-65
2023/10/07 02:16:57;;;;;;;4.53;4.13;;;;;;;-145.63;51.83;39376.28;5049492;28;20029;-65
2023/10/07 02:19:29;;;;;;;5.20;4.65;;;;;;;-145.63;52.52;39356.72;5057457;28;20044;-65
2023/10/07 02:22:22;;;;;;;8.23;4.50;;;;;;;-145.63;51.92;39356.72;5050575;28;20028;-66
2023/10/07 02:25:02;;;;;;;4.60;4.20;;;;;;;-145.63;51.71;39356.72;5053595;28;20209;-65
2023/10/07 02:27:41;;;;;;;5.13;4.63;;;;;;;-145.63;52.25;39344.97;5057613;28;20025;-65
2023/10/07 02:30:16;;;;;;;3.88;3.58;;;;;;;-145.63;52.71;39358.66;5047419;28;20399;-66
2023/10/07 02:32:46;;;;;;;4.47;3.47;;;;;;;-145.63;52.20;39366.50;5063975;28;20025;-66
2023/10/07 02:35:20;;;;;;;5.32;2.80;;;;;;;-145.63;52.25;39339.13;5044399;28;20017;-66
2023/10/07 02:37:49;;;;;;;3.50;2.83;;;;;;;-145.63;52.35;39350.84;5060983;28;20025;-65
2023/10/07 02:40:22;;;;;;;3.30;2.72;;;;;;;-145.63;52.31;39374.31;5051533;28;20025;-65
2023/10/07 02:42:50;;;;;;;6.70;3.00;;;;;;;-145.63;52.54;39374.31;5043885;28;20029;-65
2023/10/07 02:47:50;;;;;;;3.58;2.88;;;;;;;-145.63;53.23;39346.94;5063940;28;20024;-67
2023/10/07 02:50:17;;;;;;;5.20;3.30;;;;;;;-145.63;52.94;39350.84;5024073;28;20033;-65
2023/10/07 02:52:46;;;;;;;3.67;3.28;;;;;;;-145.63;52.88;39356.72;5056692;28;20025;-65
2023/10/07 02:57:42;;;;;;;3.00;2.40;;;;;;;-145.63;52.46;39352.81;5051404;28;20144;-66
2023/10/07 03:00:18;;;;;;;5.65;3.08;;;;;;;-145.63;52.11;39358.66;5060259;28;20033;-66
2023/10/07 03:02:50;;;;;;;4.80;2.72;;;;;;;-145.63;53.03;39413.44;5043499;28;20037;-66
2023/10/07 03:05:29;;;;;;;4.50;3.17;;;;;;;-145.63;52.67;39360.63;5023963;28;20068;-65
2023/10/07 03:08:06;;;;;;;5.35;2.60;;;;;;;-145.63;53.00;39364.53;5059088;28;20025;-66
2023/10/07 03:11:09;;;;;;;3.72;2.35;;;;;;;-145.63;53.06;39374.31;5047886;28;20093;-64
2023/10/07 03:13:24;;;;;;;4.43;2.80;;;;;;;-145.63;52.47;39376.28;5050339;28;20088;-65
2023/10/07 03:16:09;;;;;;;3.03;2.08;;;;;;;-145.63;52.46;39346.94;5043148;28;20325;-64
2023/10/07 03:18:38;;;;;;;4.43;2.20;;;;;;;-145.63;51.80;39370.41;5049918;28;20041;-66
2023/10/07 03:21:10;;;;;;;2.47;1.70;;;;;;;-145.63;51.81;39399.75;5059763;28;20045;-65
2023/10/07 03:23:48;;;;;;;2.38;1.80;;;;;;;-145.63;51.56;39370.41;5043546;28;20040;-65
2023/10/07 03:26:18;;;;;;;3.10;2.15;;;;;;;-145.63;51.79;39372.34;5023745;28;20322;-66
2023/10/07 03:29:05;;;;;;;3.67;2.08;;;;;;;-145.63;51.94;39360.63;5032119;28;20355;-66
2023/10/07 03:31:35;;;;;;;3.10;1.92;;;;;;;-145.63;51.22;39417.34;5043632;28;20365;-66
2023/10/07 03:34:03;;;;;;;2.53;1.55;;;;;;;-145.63;51.39;39292.19;5042710;28;20021;-66
2023/10/07 03:36:41;;;;;;;2.45;1.80;;;;;;;-145.63;51.41;39409.53;5048990;28;20294;-66
2023/10/07 03:41:47;;;;;;;2.67;2.00;;;;;;;-145.63;51.54;39386.06;5043759;28;20025;-65
2023/10/07 03:44:21;;;;;;;4.40;2.53;;;;;;;-145.63;51.31;39366.50;5038804;28;20029;-65
2023/10/07 03:46:48;;;;;;;3.50;2.40;;;;;;;-145.63;51.72;39368.44;5039708;28;20053;-65
2023/10/07 03:49:16;;;;;;;3.00;2.25;;;;;;;-145.63;51.44;39474.06;5036699;28;20085;-65
2023/10/07 03:54:40;;;;;;;3.25;2.10;;;;;;;-145.63;50.87;39368.44;5039478;28;20094;-66
2023/10/07 03:57:07;;;;;;;2.67;2.00;;;;;;;-145.63;51.25;39368.44;5029208;28;20032;-65
2023/10/07 03:59:39;;;;;;;4.22;2.00;;;;;;;-145.63;50.76;39356.72;5067319;28;20037;-66
2023/10/07 04:05:00;;;;;;;4.65;2.33;;;;;;;-145.63;50.89;39364.53;5069451;28;20070;-65
2023/10/07 04:07:31;;;;;;;3.88;2.45;;;;;;;-145.63;50.97;39346.94;5053588;28;20022;-65
2023/10/07 04:12:39;;;;;;;5.15;2.80;;;;;;;-145.63;51.09;39368.44;5053761;28;20029;-64
2023/10/07 04:15:11;;;;;;;6.57;2.60;;;;;;;-145.63;50.87;39352.81;5042295;28;20050;-65
2023/10/07 04:17:38;;;;;;;3.83;2.58;;;;;;;-145.63;51.05;39350.84;5027993;28;20038;-66
2023/10/07 04:20:19;;;;;;;7.95;2.72;;;;;;;-145.63;50.80;39407.56;5063193;28;20037;-66
2023/10/07 04:23:00;;;;;;;5.55;3.25;;;;;;;-145.63;51.43;39043.81;5051244;28;20029;-66
2023/10/07 04:25:27;;;;;;;4.80;2.90;;;;;;;-145.63;51.59;39354.75;5060397;28;20021;-65
2023/10/07 04:27:53;;;;;;;5.80;3.20;;;;;;;-145.63;51.18;39362.59;5059952;28;20049;-64
2023/10/07 04:30:39;;;;;;;4.45;2.85;;;;;;;-145.63;51.00;39354.75;5050443;28;20029;-65
2023/10/07 04:33:10;;;;;;;4.93;2.47;;;;;;;-145.63;51.65;39352.81;5061671;28;20302;-65
2023/10/07 04:35:37;;;;;;;5.78;2.58;;;;;;;-145.63;52.19;39348.88;5037930;28;20025;-66
2023/10/07 04:38:18;;;;;;;3.70;2.70;;;;;;;-145.63;52.02;39335.19;5038992;28;20025;-64
2023/10/07 04:41:30;;;;;;;8.57;3.13;;;;;;;-145.63;51.48;39356.72;5060486;28;20084;-64
2023/10/07 04:46:28;;;;;;;5.18;2.78;;;;;;;-145.63;51.63;39358.66;5053740;28;20052;-64
2023/10/07 04:48:57;;;;;;;6.05;2.80;;;;;;;-145.63;50.78;39376.28;5054641;28;20326;-66
2023/10/07 04:54:00;;;;;;;3.70;2.20;;;;;;;-145.63;50.62;39378.22;5043457;28;20034;-64
2023/10/07 04:56:27;;;;;;;4.28;2.53;;;;;;;-145.63;50.41;39368.44;5048222;28;20093;-64
2023/10/07 04:58:53;;;;;;;3.88;2.85;;;;;;;-145.63;50.60;39350.84;5058632;28;20020;-65
2023/10/07 05:01:31;;;;;;;6.22;2.78;;;;;;;-145.63;50.69;39348.88;5054131;28;20017;-65
2023/10/07 05:03:58;;;;;;;5.07;2.92;;;;;;;-145.63;51.04;39354.75;5045517;28;20082;-65
2023/10/07 05:06:25;;;;;;;4.13;2.47;;;;;;;-145.63;50.97;39368.44;5050029;28;20055;-67
2023/10/07 05:08:51;;;;;;;7.68;2.88;;;;;;;-145.63;50.65;39350.84;5047975;28;20067;-66
2023/10/07 05:11:20;;;;;;;3.10;2.75;;;;;;;-145.63;50.87;39366.50;5046063;28;20083;-65
2023/10/07 05:13:46;;;;;;;3.33;2.70;;;;;;;-145.63;50.53;39368.44;5050049;28;20164;-65
2023/10/07 05:16:14;;;;;;;4.55;2.50;;;;;;;-145.63;50.73;39386.06;5045546;28;20073;-66
2023/10/07 05:18:41;;;;;;;5.03;2.92;;;;;;;-145.63;50.58;39362.59;5051780;28;20074;-64
2023/10/07 05:21:07;;;;;;;3.90;2.35;;;;;;;-145.63;50.65;39325.41;5063580;28;20389;-66
2023/10/07 05:23:34;;;;;;;4.32;2.95;;;;;;;-145.63;50.14;39354.75;5045693;28;20033;-66
2023/10/07 05:26:03;;;;;;;3.30;2.72;;;;;;;-145.63;50.68;39364.53;5062584;28;20057;-66
2023/10/07 05:28:32;;;;;;;4.03;2.80;;;;;;;-145.63;50.22;39382.13;5052485;28;20029;-66
2023/10/07 05:31:02;;;;;;;5.88;2.70;;;;;;;-145.63;49.84;39356.72;5053765;28;20028;-65
2023/10/07 05:33:28;;;;;;;5.57;3.05;;;;;;;-145.63;49.44;39386.06;5039860;28;20029;-64
2023/10/07 05:36:13;;;;;;;3.97;3.10;;;;;;;-145.63;49.44;39321.50;5025488;28;20029;-65
2023/10/07 05:38:40;;;;;;;5.75;3.00;;;;;;;-145.63;49.25;39376.28;5025476;28;20029;-65
2023/10/07 05:41:06;;;;;;;4.90;2.33;;;;;;;-145.63;49.60;39341.06;5059054;28;20043;-65
2023/10/07 05:43:33;;;;;;;5.75;2.63;;;;;;;-145.63;49.94;39344.97;5058936;28;20021;-66
2023/10/07 05:45:59;;;;;;;4.45;2.53;;;;;;;-145.63;49.32;39364.53;5056387;28;20030;-65
2023/10/07 05:48:25;;;;;;;4.25;2.30;;;;;;;-145.63;49.50;39362.59;5049158;28;20025;-65
2023/10/07 05:50:54;;;;;;;4.47;2.40;;;;;;;-145.63;49.28;39364.53;5065213;28;20048;-65
2023/10/07 05:53:21;;;;;;;3.85;2.28;;;;;;;-145.63;48.85;39329.34;5030256;28;20030;-66
2023/10/07 05:55:47;;;;;;;4.20;2.38;;;;;;;-145.63;48.60;39343.03;5044350;28;20190;-66
2023/10/07 05:58:14;;;;;;;3.28;2.38;;;;;;;-145.63;48.92;39341.06;5054234;28;20021;-66
2023/10/07 06:00:40;;;;;;;7.28;2.83;;;;;;;-145.63;48.19;39356.72;5055857;28;20041;-65
2023/10/07 06:03:12;;;;;;;3.72;2.47;;;;;;;-145.63;48.04;39368.44;5038137;28;20058;-66
2023/10/07 06:05:38;;;;;;;4.72;2.45;;;;;;;-145.63;48.37;39327.38;5052780;28;20037;-66
2023/10/07 06:08:05;;;;;;;7.78;2.50;;;;;;;-145.63;48.25;39356.72;5044458;28;20030;-65
2023/10/07 06:10:33;;;;;;;3.40;2.25;;;;;;;-145.63;48.01;39360.63;5044561;28;20263;-66
2023/10/07 06:13:00;;;;;;;4.88;2.50;;;;;;;-145.63;47.74;39337.16;5051969;28;20301;-65
2023/10/07 06:15:25;;;;;;;2.78;1.75;;;;;;;-145.63;47.62;39370.41;5041250;28;20033;-66
2023/10/07 06:17:51;;;;;;;5.15;2.42;;;;;;;-145.63;47.42;39374.31;5044221;28;20036;-65
2023/10/07 06:20:26;;;;;;;4.45;2.33;;;;;;;-145.63;47.72;39235.47;5026658;28;20061;-65
2023/10/07 06:22:56;;;;;;;3.95;2.25;;;;;;;-145.63;47.20;39362.59;5040195;28;20025;-66
2023/10/07 06:25:30;;;;;;;4.35;2.33;;;;;;;-145.63;46.92;39354.75;5055778;28;20060;-65
2023/10/07 06:27:59;;;;;;;3.70;2.35;;;;;;;-145.63;47.13;39356.72;5046727;28;20030;-66
2023/10/07 06:30:26;;;;;;;4.88;2.38;;;;;;;-145.63;47.53;39272.63;5049772;28;20075;-65
2023/10/07 06:32:55;;;;;;;3.95;2.63;;;;;;;-145.63;47.10;39350.84;5047723;28;20022;-65
2023/10/07 06:35:23;;;;;;;3.42;2.63;;;;;;;-145.63;47.13;39344.97;5044360;28;20029;-65
2023/10/07 06:37:51;;;;;;;5.82;2.53;;;;;;;-145.63;47.47;39386.06;5042915;28;20026;-64
2023/10/07 06:40:30;;;;;;;5.47;2.95;;;;;;;-145.63;47.76;39368.44;5054666;28;20037;-66
2023/10/07 06:42:58;;;;;;;4.57;2.83;;;;;;;-145.63;47.26;39348.88;5026004;28;20077;-65
2023/10/07 06:45:39;;;;;;;7.10;3.30;;;;;;;-145.63;47.39;39423.22;5029490;28;20031;-66
2023/10/07 06:48:08;;;;;;;5.80;3.30;;;;;;;-145.63;46.98;39372.34;5063165;28;20044;-66
2023/10/07 06:50:35;;;;;;;5.60;3.35;;;;;;;-145.63;46.88;39401.69;5043313;28;20139;-66
2023/10/07 06:53:02;;;;;;;7.50;3.55;;;;;;;-145.63;46.98;39389.97;5060902;28;20053;-66
2023/10/07 06:55:28;;;;;;;6.10;3.70;;;;;;;-145.63;47.23;39356.72;5052088;28;20031;-65
2023/10/07 06:57:56;;;;;;;5.97;3.78;;;;;;;-145.63;47.09;39442.78;5050757;28;20088;-65
2023/10/07 07:00:24;;;;;;;7.70;3.90;;;;;;;-145.63;47.18;39372.34;5061033;28;20037;-66
2023/10/07 07:02:57;;;;;;;7.47;4.20;;;;;;;-145.63;47.70;39380.19;5043678;28;20066;-66
2023/10/07 07:05:24;;;;;;;6.38;3.75;;;;;;;-145.63;48.54;39358.66;5063083;28;20067;-65
2023/10/07 07:07:53;;;;;;;6.90;4.07;;;;;;;-145.63;48.90;39337.16;5047159;28;20093;-65
2023/10/07 07:10:27;;;;;;;8.70;4.00;;;;;;;-145.63;49.76;39344.97;5054291;28;20245;-65
2023/10/07 07:13:03;;;;;;;5.95;3.78;;;;;;;-145.63;50.55;39450.59;5056302;28;20322;-64
2023/10/07 07:15:36;;;;;;;6.78;3.55;;;;;;;-145.63;50.69;39378.22;5036383;28;20037;-64
2023/10/07 07:18:25;;;;;;;5.30;3.40;;;;;;;-145.63;52.10;39368.44;5031962;28;20036;-64
2023/10/07 07:20:48;;;;;;;7.53;3.60;;;;;;;-145.63;52.76;39343.03;5023365;28;20044;-66
2023/10/07 07:23:21;;;;;;;13.07;3.88;;;;;;;-145.63;52.29;39350.84;5046926;28;20202;-64
2023/10/07 07:28:34;;;;;;;8.50;3.70;;;;;;;-145.63;53.84;39346.94;5051557;28;20120;-67
2023/10/07 07:31:10;;;;;;;6.00;3.67;;;;;;;-145.63;54.11;39372.34;5050054;28;20029;-65
2023/10/07 07:33:37;;;;;;;9.35;3.40;;;;;;;-145.63;54.55;39368.44;5058106;28;20021;-66
2023/10/07 07:36:19;;;;;;;7.15;3.28;;;;;;;-145.63;54.69;39391.91;5043093;28;20053;-64
2023/10/07 07:38:45;;;;;;;;;;;;;;;-145.63;55.28;39360.63;5039461;28;20026;-65
2023/10/07 07:41:26;;;;;;;5.18;3.40;;;;;;;-145.63;55.02;39341.06;5055322;28;20147;-64
2023/10/07 07:43:53;;;;;;;7.17;3.90;;;;;;;-145.63;55.91;39362.59;5057619;28;20189;-64
2023/10/07 07:46:45;;;;;;;5.32;2.97;;;;;;;-145.63;55.40;39360.63;5052999;28;20222;-64
2023/10/07 07:49:11;;;;;;;6.03;3.22;;;;;;;-145.63;55.97;39417.34;5042956;28;20068;-63
2023/10/07 07:51:37;;;;;;;5.57;3.50;;;;;;;-145.63;55.98;39374.31;5047485;28;20017;-63
2023/10/07 07:54:08;;;;;;;7.78;3.33;;;;;;;-145.63;56.11;39378.22;5063126;28;20028;-64
2023/10/07 07:56:38;;;;;;;5.13;3.53;;;;;;;-145.63;56.78;39339.13;5034170;28;20195;-62
2023/10/07 07:59:13;;;;;;;5.78;3.22;;;;;;;-145.63;56.59;39364.53;5034401;28;20025;-63
2023/10/07 08:01:53;;;;;;;9.05;3.60;;;;;;;-145.63;56.76;39374.31;5051236;28;20032;-64
2023/10/07 08:07:18;;;;;;;6.80;3.85;;;;;;;-145.63;57.57;39337.16;5041707;28;20124;-64
2023/10/07 08:09:44;;;;;;;5.93;3.40;;;;;;;-145.63;57.78;39366.50;5057692;28;20065;-64
2023/10/07 08:12:10;;;;;;;7.18;3.55;;;;;;;-145.63;58.30;39366.50;5042677;28;20040;-63
2023/10/07 08:14:37;;;;;;;6.38;3.50;;;;;;;-145.63;58.73;39364.53;5034696;28;20105;-63
2023/10/07 08:17:08;;;;;;;7.75;3.42;;;;;;;-145.63;58.82;39376.28;5044583;28;20065;-63
2023/10/07 08:19:34;;;;;;;6.28;3.55;;;;;;;-145.63;58.73;39376.28;5042440;28;20048;-63
2023/10/07 08:22:02;;;;;;;7.40;3.92;;;;;;;-145.63;59.60;39374.31;5042604;28;20028;-63
2023/10/07 08:24:31;;;;;;;6.80;3.75;;;;;;;-145.63;59.87;39376.28;5042669;28;20032;-63
2023/10/07 08:27:03;;;;;;;6.07;4.07;;;;;;;-145.63;59.62;39153.31;5040185;28;20087;-63
2023/10/07 08:29:33;;;;;;;7.50;4.60;;;;;;;-145.63;59.67;39372.34;5039410;28;20337;-63
2023/10/07 08:32:28;;;;;;;5.63;3.70;;;;;;;-145.63;59.36;39380.19;5039686;28;20025;-62
2023/10/07 08:34:59;;;;;;;5.88;3.80;;;;;;;-145.63;60.05;39384.09;5038768;28;20325;-62
2023/10/07 08:37:32;;;;;;;6.63;3.88;;;;;;;-145.63;59.67;39360.63;5041589;28;20029;-63
2023/10/07 08:40:13;;;;;;;5.20;3.33;;;;;;;-145.63;60.48;39341.06;5042173;28;20383;-63
2023/10/07 08:42:45;;;;;;;5.60;3.22;;;;;;;-145.63;60.75;39372.34;5039575;28;20097;-63
2023/10/07 08:45:14;;;;;;;5.85;3.63;;;;;;;-145.63;60.72;39354.75;5045746;28;20017;-63
2023/10/07 08:47:49;;;;;;;7.13;3.97;;;;;;;-145.63;61.15;39354.75;5045680;28;20013;-63
2023/10/07 08:50:23;;;;;;;7.00;3.55;;;;;;;-145.63;61.85;39372.34;5046003;28;20053;-63
2023/10/07 08:53:06;;;;;;;5.60;3.75;;;;;;;-145.63;61.36;39360.63;5044501;28;20225;-62
2023/10/07 08:55:33;;;;;;;7.05;3.78;;;;;;;-145.63;61.48;39372.34;5039989;28;20025;-64
2023/10/07 08:58:02;;;;;;;4.45;3.60;;;;;;;-145.63;62.01;39362.59;5036750;28;20026;-62
2023/10/07 09:00:32;;;;;;;6.25;3.90;;;;;;;-145.63;62.23;39391.91;5041735;28;20036;-63
2023/10/07 09:03:14;;;;;;;4.85;3.97;;;;;;;-145.63;62.04;39358.66;5064761;28;20108;-62
2023/10/07 09:05:41;;;;;;;4.82;4.32;;;;;;;-145.63;62.49;39366.50;5026095;28;20026;-62
2023/10/07 09:08:11;;;;;;;4.90;3.67;;;;;;;-145.63;61.94;39358.66;5057843;28;20052;-62
2023/10/07 09:10:38;;;;;;;4.68;3.38;;;;;;;-145.63;62.06;39307.81;5053455;28;20306;-62
2023/10/07 09:13:04;;;;;;;4.72;3.83;;;;;;;-145.63;61.69;39360.63;5045101;28;20075;-62
2023/10/07 09:15:35;;;;;;;6.55;4.47;;;;;;;-145.63;62.24;39362.59;5033091;28;20045;-63
2023/10/07 09:18:05;;;;;;;6.35;4.05;;;;;;;-145.63;61.92;39397.78;5045246;28;20025;-62
2023/10/07 09:20:32;;;;;;;4.22;3.55;;;;;;;-145.63;62.00;39372.34;5064818;28;20052;-62
2023/10/07 09:23:15;;;;;;;5.43;3.80;;;;;;;-145.63;62.15;39388.00;5038177;28;20336;-63
2023/10/07 09:25:47;;;;;;;6.22;3.63;;;;;;;-145.63;62.71;39348.88;5038270;28;20045;-62
2023/10/07 09:28:13;;;;;;;;;;;;;;;-145.63;62.50;39346.94;5039270;28;20030;-63
2023/10/07 09:33:13;;;;;;;5.05;3.80;;;;;;;-145.63;62.23;39364.53;5065237;28;20496;-62
2023/10/07 09:35:43;;;;;;;7.57;3.40;;;;;;;-145.63;62.06;39386.06;5025566;28;20104;-62
2023/10/07 09:38:24;;;;;;;5.78;3.83;;;;;;;-145.63;62.34;39388.00;5057019;28;20078;-62
2023/10/07 09:43:33;;;;;;;8.55;6.15;;;;;;;-145.63;62.10;39374.31;5044662;28;20092;-62
2023/10/07 09:45:58;;;;;;;4.95;3.55;;;;;;;-145.63;62.43;39391.91;5057139;28;20025;-63
2023/10/07 09:48:31;;;;;;;6.15;3.33;;;;;;;-145.63;62.33;39393.88;5046526;28;20025;-64
2023/10/07 09:51:02;;;;;;;4.80;3.30;;;;;;;-145.63;62.35;39374.31;5064868;28;20079;-64
2023/10/07 09:53:59;;;;;;;5.68;3.72;;;;;;;-145.63;62.22;39405.59;5037752;28;20329;-64
2023/10/07 09:56:32;;;;;;;4.63;2.80;;;;;;;-145.63;62.25;39368.44;5029239;28;20290;-62
2023/10/07 09:59:17;;;;;;;4.78;3.13;;;;;;;-145.63;62.32;39391.91;5032778;28;20041;-65
2023/10/07 10:02:25;;;;;;;4.38;3.17;;;;;;;-145.63;62.93;39372.34;5055929;28;20279;-64
2023/10/07 10:05:25;;;;;;;6.43;3.20;;;;;;;-145.63;62.58;39372.34;5051038;28;20032;-63
2023/10/07 10:08:06;;;;;;;5.75;3.33;;;;;;;-145.63;62.54;39397.78;5057807;28;20024;-64
2023/10/07 10:10:32;;;;;;;4.40;3.00;;;;;;;-145.63;62.81;39366.50;5053776;28;20214;-63
2023/10/07 10:18:35;;;;;;;4.32;3.00;;;;;;;-145.63;62.70;39343.03;5038814;28;20049;-63
2023/10/07 10:21:09;;;;;;;6.85;3.40;;;;;;;-145.63;62.54;39388.00;5024593;28;20096;-65
2023/10/07 10:23:37;;;;;;;4.55;3.30;;;;;;;-145.63;62.38;39350.84;5062961;28;20027;-63
2023/10/07 10:26:27;;;;;;;4.78;3.28;;;;;;;-145.63;62.39;39386.06;5036396;28;20047;-63
2023/10/07 10:29:15;;;;;;;3.63;3.30;;;;;;;-145.63;62.38;39382.13;5046612;28;20022;-62
2023/10/07 10:31:49;;;;;;;5.47;3.72;;;;;;;-145.63;62.64;39380.19;5049842;28;20022;-62
2023/10/07 10:34:14;;;;;;;4.25;3.25;;;;;;;-145.63;62.08;39380.19;5038586;28;20040;-64
2023/10/07 10:36:48;;;;;;;3.53;3.00;;;;;;;-145.63;62.00;39384.09;5041299;28;20029;-64
2023/10/07 10:39:22;;;;;;;5.25;3.75;;;;;;;-145.63;62.64;39423.22;5032395;28;20033;-65
2023/10/07 10:41:49;;;;;;;4.03;3.25;;;;;;;-145.63;62.56;39368.44;5034084;28;20013;-66
2023/10/07 10:44:16;;;;;;;3.78;3.08;;;;;;;-145.63;62.89;39380.19;5041876;28;20029;-65
2023/10/07 10:46:49;;;;;;;4.00;2.88;;;;;;;-145.63;62.62;39368.44;5040163;28;20198;-64
2023/10/07 10:49:20;;;;;;;5.45;3.75;;;;;;;-145.63;62.66;39384.09;5039082;28;20099;-64
2023/10/07 10:51:55;;;;;;;5.20;3.67;;;;;;;-145.63;62.87;39403.66;5036673;28;20021;-64
2023/10/07 10:54:23;;;;;;;4.00;3.30;;;;;;;-145.63;62.81;39388.00;5038441;28;20021;-65
2023/10/07 10:56:58;;;;;;;4.72;3.47;;;;;;;-145.63;62.75;39403.66;5051663;28;20060;-62
2023/10/07 10:59:47;;;;;;;5.65;3.90;;;;;;;-145.63;62.97;39391.91;5044319;28;20433;-62
2023/10/07 11:02:20;;;;;;;4.80;4.03;;;;;;;-145.63;62.92;39364.53;5059378;28;20199;-63
2023/10/07 11:04:55;;;;;;;6.38;4.05;;;;;;;-145.63;62.87;39374.31;5051304;28;20026;-63
2023/10/07 11:07:24;;;;;;;3.58;3.28;;;;;;;-145.63;62.72;39415.38;5040947;28;20029;-64
2023/10/07 11:09:54;;;;;;;4.38;3.70;;;;;;;-145.63;63.39;39399.75;5057350;28;20052;-64
2023/10/07 11:12:22;;;;;;;5.38;3.78;;;;;;;-145.63;63.34;39384.09;5035001;28;20029;-64
2023/10/07 11:14:48;;;;;;;4.38;3.38;;;;;;;-145.63;63.34;39378.22;5040076;28;20337;-64
2023/10/07 11:17:15;;;;;;;7.50;4.00;;;;;;;-145.63;63.34;39386.06;5050840;28;20021;-65
2023/10/07 11:19:44;;;;;;;3.42;3.10;;;;;;;-145.63;63.33;39401.69;5036060;28;20041;-65
2023/10/07 11:22:20;;;;;;;5.15;3.45;;;;;;;-145.63;63.30;38987.09;5041506;28;20029;-64
2023/10/07 11:24:50;;;;;;;4.15;3.35;;;;;;;-145.63;63.41;39436.91;5046938;28;20041;-65
2023/10/07 11:27:23;;;;;;;6.05;3.45;;;;;;;-145.63;63.45;39397.78;5040904;28;20057;-65
2023/10/07 11:30:03;;;;;;;3.97;3.00;;;;;;;-145.63;63.37;39378.22;5037685;28;20025;-66
2023/10/07 11:32:38;;;;;;;3.83;3.00;;;;;;;-145.63;63.08;39389.97;5038154;28;20088;-64
2023/10/07 11:35:27;;;;;;;3.20;2.88;;;;;;;-145.63;63.57;39454.50;5040985;28;20337;-64
2023/10/07 11:38:02;;;;;;;4.35;3.00;;;;;;;-145.63;63.22;39372.34;5041220;28;20025;-65
2023/10/07 11:40:29;;;;;;;3.35;2.83;;;;;;;-145.63;63.44;39380.19;5040494;28;20206;-64
2023/10/07 11:42:58;;;;;;;3.17;2.70;;;;;;;-145.63;63.41;39380.19;5039575;28;20068;-64
2023/10/07 11:45:26;;;;;;;3.95;2.90;;;;;;;-145.63;63.48;39370.41;5040043;28;20024;-63
2023/10/07 11:47:56;;;;;;;2.58;2.25;;;;;;;-145.63;63.51;39382.13;5038029;28;20036;-64
2023/10/07 11:50:29;;;;;;;2.80;2.60;;;;;;;-145.63;63.19;39413.44;5038801;28;20017;-65
2023/10/07 11:52:55;;;;;;;3.30;2.60;;;;;;;-145.63;63.29;39352.81;5051074;28;20243;-64
2023/10/07 11:55:20;;;;;;;2.50;2.25;;;;;;;-145.63;63.45;39376.28;5043480;28;20078;-64
2023/10/07 11:57:46;;;;;;;3.15;2.60;;;;;;;-145.63;63.76;39401.69;5039214;28;20088;-65
2023/10/07 12:00:23;;;;;;;3.38;2.80;;;;;;;-145.63;63.20;38836.50;5024691;28;20038;-65
2023/10/07 12:02:52;;;;;;;4.43;2.78;;;;;;;-145.63;63.49;39386.06;5022805;28;20025;-64
2023/10/07 12:05:18;;;;;;;5.47;3.13;;;;;;;-145.63;63.46;39427.13;5054538;28;20096;-64
2023/10/07 12:07:47;;;;;;;4.95;3.45;;;;;;;-145.63;63.62;39425.16;5051366;28;20026;-65
2023/10/07 12:10:17;;;;;;;3.38;3.08;;;;;;;-145.63;63.67;39364.53;5049704;28;20321;-64
2023/10/07 12:12:43;;;;;;;3.35;3.05;;;;;;;-145.63;63.49;39407.56;5059947;28;21729;-64
2023/10/07 12:15:15;;;;;;;4.68;3.75;;;;;;;-145.63;63.55;39442.78;5041866;28;20314;-64
2023/10/07 12:17:44;;;;;;;4.57;3.50;;;;;;;-145.63;63.43;39391.91;5041331;28;20198;-64
2023/10/07 12:20:12;;;;;;;7.07;4.72;;;;;;;-145.63;63.59;39413.44;5061014;28;20043;-64
2023/10/07 12:22:42;;;;;;;5.93;4.03;;;;;;;-145.63;63.43;39399.75;5056523;28;20085;-64
2023/10/07 12:25:15;;;;;;;6.13;4.10;;;;;;;-145.63;63.64;39386.06;5052814;28;20040;-63
2023/10/07 12:27:45;;;;;;;6.13;3.83;;;;;;;-145.63;63.87;39384.09;5064330;28;20052;-64
2023/10/07 12:30:11;;;;;;;6.10;4.35;;;;;;;-145.63;63.91;39403.66;5046885;28;20033;-65